createdAt,value
2023-05-11T00:03:57.949Z,10.20
2023-05-11T00:09:02.906Z,10.20
2023-05-11T00:14:06.490Z,10.20
2023-05-11T00:19:10.039Z,10.20
2023-05-11T00:24:15.064Z,10.20
2023-05-11T00:29:19.518Z,10.20
2023-05-11T00:34:23.391Z,10.10
2023-05-11T00:39:29.215Z,10.10
2023-05-11T00:44:34.102Z,10.00
2023-05-11T00:49:39.072Z,10.00
2023-05-11T00:54:44.833Z,9.90
2023-05-11T00:59:49.961Z,9.90
2023-05-11T01:04:53.329Z,9.90
2023-05-11T01:10:05.292Z,10.00
2023-05-11T01:15:12.346Z,10.00
2023-05-11T01:20:22.733Z,10.00
2023-05-11T01:25:58.114Z,10.00
2023-05-11T01:31:08.602Z,10.10
2023-05-11T01:36:14.099Z,10.00
2023-05-11T01:41:22.131Z,10.00
2023-05-11T01:46:35.530Z,10.00
2023-05-11T01:51:41.498Z,10.10
2023-05-11T01:56:47.379Z,10.20
2023-05-11T02:01:54.564Z,10.10
2023-05-11T02:07:00.344Z,10.10
2023-05-11T02:12:05.959Z,10.20
2023-05-11T02:17:11.954Z,10.10
2023-05-11T02:22:15.641Z,10.20
2023-05-11T02:27:19.176Z,10.10
2023-05-11T02:32:28.654Z,10.20
2023-05-11T02:37:36.305Z,10.10
2023-05-11T02:42:43.844Z,10.10
2023-05-11T02:47:55.302Z,10.10
2023-05-11T02:53:02.815Z,10.10
2023-05-11T02:58:06.568Z,10.10
2023-05-11T03:03:11.585Z,10.00
2023-05-11T03:08:15.916Z,10.00
2023-05-11T03:13:21.402Z,10.00
2023-05-11T03:18:28.037Z,9.90
2023-05-11T03:23:32.260Z,9.90
2023-05-11T03:28:36.869Z,9.90
2023-05-11T03:33:41.628Z,9.90
2023-05-11T03:38:46.305Z,9.90
2023-05-11T03:43:52.816Z,9.90
2023-05-11T03:48:58.126Z,9.90
2023-05-11T03:54:06.230Z,9.80
2023-05-11T03:59:10.716Z,9.90
2023-05-11T04:04:15.750Z,9.80
2023-05-11T04:09:19.282Z,9.80
2023-05-11T04:14:23.563Z,9.80
2023-05-11T04:19:28.756Z,9.80
2023-05-11T04:24:32.133Z,9.80
2023-05-11T04:29:35.889Z,9.80
2023-05-11T04:34:41.636Z,9.90
2023-05-11T04:39:44.971Z,9.90
2023-05-11T04:44:48.410Z,10.00
2023-05-11T04:49:53.178Z,10.00
2023-05-11T04:54:58.875Z,10.00
2023-05-11T05:00:08.899Z,10.10
2023-05-11T05:05:13.970Z,10.20
2023-05-11T05:10:17.720Z,10.20
2023-05-11T05:15:24.500Z,10.30
2023-05-11T05:20:30.314Z,10.40
2023-05-11T05:25:35.467Z,10.50
2023-05-11T05:30:40.965Z,10.60
2023-05-11T05:35:47.009Z,10.60
2023-05-11T05:40:52.443Z,10.70
2023-05-11T05:45:58.104Z,10.80
2023-05-11T05:51:03.025Z,10.90
2023-05-11T05:56:08.579Z,11.00
2023-05-11T06:01:13.728Z,11.10
2023-05-11T06:06:18.731Z,11.10
2023-05-11T06:11:24.320Z,11.20
2023-05-11T06:16:32.290Z,11.30
2023-05-11T06:21:38.788Z,11.40
2023-05-11T06:26:47.286Z,11.40
2023-05-11T06:31:53.090Z,11.60
2023-05-11T06:37:00.480Z,11.70
2023-05-11T06:42:06.437Z,11.80
2023-05-11T06:47:10.261Z,11.90
2023-05-11T06:52:16.792Z,12.00
2023-05-11T06:57:20.361Z,11.90
2023-05-11T07:02:25.734Z,11.90
2023-05-11T07:07:35.546Z,11.90
2023-05-11T07:12:43.375Z,12.00
2023-05-11T07:17:48.098Z,12.10
2023-05-11T07:22:53.304Z,12.30
2023-05-11T07:27:58.836Z,12.30
2023-05-11T07:33:04.476Z,12.30
2023-05-11T07:38:12.029Z,12.30
2023-05-11T07:43:18.077Z,12.60
2023-05-11T07:48:25.547Z,12.70
2023-05-11T07:53:30.559Z,12.80
2023-05-11T07:58:35.307Z,12.60
2023-05-11T08:03:48.150Z,12.80
2023-05-11T08:08:55.099Z,12.90
2023-05-11T08:14:03.428Z,13.10
2023-05-11T08:24:35.703Z,13.00
2023-05-11T08:29:49.231Z,13.00
2023-05-11T08:34:59.903Z,13.10
2023-05-11T08:40:05.489Z,13.30
2023-05-11T08:45:18.816Z,13.40
2023-05-11T08:50:24.462Z,13.50
2023-05-11T08:55:35.134Z,13.50
2023-05-11T09:00:39.927Z,13.60
2023-05-11T09:05:46.018Z,13.90
2023-05-11T09:10:57.058Z,14.10
2023-05-11T09:16:00.931Z,14.10
2023-05-11T09:21:04.386Z,14.20
2023-05-11T09:26:18.562Z,14.30
2023-05-11T09:31:41.569Z,14.30
2023-05-11T09:36:47.107Z,14.20
2023-05-11T09:42:16.299Z,14.00
2023-05-11T09:47:24.473Z,13.90
2023-05-11T09:58:05.302Z,14.20
2023-05-11T10:08:53.097Z,14.30
2023-05-11T10:14:03.610Z,14.20
2023-05-11T10:24:37.007Z,14.50
2023-05-11T10:35:14.756Z,14.30
2023-05-11T10:40:21.213Z,14.30
2023-05-11T10:45:36.857Z,14.00
2023-05-11T10:50:56.400Z,13.70
2023-05-11T10:56:23.080Z,13.10
2023-05-11T11:01:42.717Z,12.50
2023-05-11T11:06:47.758Z,12.30
2023-05-11T11:17:32.107Z,12.40
2023-05-11T11:22:47.621Z,12.60
2023-05-11T11:28:02.672Z,13.00
2023-05-11T11:33:53.292Z,13.20
2023-05-11T11:39:13.888Z,13.10
2023-05-11T11:44:43.177Z,13.30
2023-05-11T11:49:53.583Z,13.30
2023-05-11T11:55:03.049Z,13.60
2023-05-11T12:00:26.657Z,14.10
2023-05-11T12:11:08.900Z,13.80
2023-05-11T12:16:25.717Z,14.20
2023-05-11T12:21:36.405Z,14.40
2023-05-11T12:26:44.371Z,15.10
2023-05-11T12:31:52.011Z,15.40
2023-05-11T12:36:59.076Z,15.20
2023-05-11T12:42:06.749Z,14.80
2023-05-11T12:47:12.562Z,14.40
2023-05-11T12:52:19.495Z,13.80
2023-05-11T12:57:29.280Z,13.30
2023-05-11T13:02:36.576Z,13.30
2023-05-11T13:07:50.056Z,13.60
2023-05-11T13:12:59.336Z,14.30
2023-05-11T13:18:04.309Z,14.80
2023-05-11T13:23:15.511Z,15.20
2023-05-11T13:28:22.852Z,15.40
2023-05-11T13:33:40.265Z,15.80
2023-05-11T13:39:00.627Z,16.10
2023-05-11T13:44:08.149Z,16.30
2023-05-11T13:49:13.846Z,15.60
2023-05-11T13:54:17.382Z,15.60
2023-05-11T13:59:23.340Z,15.20
2023-05-11T14:04:29.749Z,14.90
2023-05-11T14:09:34.220Z,14.90
2023-05-11T14:14:41.279Z,14.90
2023-05-11T14:19:45.429Z,14.80
2023-05-11T14:24:55.520Z,15.60
2023-05-11T14:30:06.202Z,15.70
2023-05-11T14:35:13.020Z,15.20
2023-05-11T14:40:16.809Z,15.40
2023-05-11T14:45:39.745Z,15.50
2023-05-11T14:50:49.826Z,15.50
2023-05-11T14:55:58.490Z,15.40
2023-05-11T15:01:07.309Z,15.60
2023-05-11T15:06:11.423Z,15.80
2023-05-11T15:11:15.008Z,15.60
2023-05-11T15:16:19.906Z,16.20
2023-05-11T15:21:30.737Z,15.60
2023-05-11T15:26:38.520Z,15.40
2023-05-11T15:31:47.621Z,15.40
2023-05-11T15:36:52.134Z,15.90
2023-05-11T15:41:55.829Z,16.30
2023-05-11T15:47:02.757Z,16.20
2023-05-11T15:52:07.978Z,15.80
2023-05-11T15:57:18.619Z,15.70
2023-05-11T16:02:30.898Z,15.70
2023-05-11T16:07:36.791Z,15.50
2023-05-11T16:12:48.025Z,15.20
2023-05-11T16:17:55.183Z,15.10
2023-05-11T16:23:00.859Z,15.00
2023-05-11T16:28:07.546Z,15.10
2023-05-11T16:33:18.982Z,15.30
2023-05-11T16:38:29.328Z,15.30
2023-05-11T16:43:35.099Z,15.30
2023-05-11T16:48:43.158Z,15.30
2023-05-11T16:53:53.075Z,15.20
2023-05-11T16:59:13.919Z,15.10
2023-05-11T17:04:20.644Z,14.90
2023-05-11T17:09:32.770Z,14.80
2023-05-11T17:14:40.587Z,14.60
2023-05-11T17:19:46.005Z,14.30
2023-05-11T17:24:49.785Z,14.20
2023-05-11T17:29:56.108Z,14.00
2023-05-11T17:35:04.212Z,13.90
2023-05-11T17:40:09.503Z,13.80
2023-05-11T17:56:11.835Z,13.30
2023-05-11T18:01:24.514Z,13.20
2023-05-11T18:06:29.698Z,13.10
2023-05-11T18:16:52.896Z,12.60
2023-05-11T18:21:59.055Z,12.40
2023-05-11T18:27:05.048Z,12.30
2023-05-11T18:38:05.358Z,12.00
2023-05-11T18:43:08.772Z,11.80
2023-05-11T18:48:15.734Z,11.70
2023-05-11T18:53:22.738Z,11.50
2023-05-11T18:58:31.647Z,11.40
2023-05-11T19:03:42.679Z,11.20
2023-05-11T19:08:47.909Z,11.00
2023-05-11T19:13:53.367Z,10.90
2023-05-11T19:19:05.738Z,10.90
2023-05-11T19:24:10.645Z,10.80
2023-05-11T19:29:19.291Z,10.70
2023-05-11T19:34:26.169Z,10.60
2023-05-11T19:39:36.754Z,10.50
2023-05-11T19:44:45.323Z,10.50
2023-05-11T19:49:53.023Z,10.40
2023-05-11T19:54:56.714Z,10.40
2023-05-11T20:00:08.004Z,10.30
2023-05-11T20:05:15.745Z,10.30
2023-05-11T20:10:21.015Z,10.20
2023-05-11T20:15:32.887Z,10.10
2023-05-11T20:20:40.692Z,10.10
2023-05-11T20:25:49.238Z,10.00
2023-05-11T20:30:56.797Z,9.90
2023-05-11T20:36:02.293Z,9.80
2023-05-11T20:41:07.142Z,9.80
2023-05-11T20:46:13.322Z,9.70
2023-05-11T20:51:25.302Z,9.70
2023-05-11T20:56:32.731Z,9.60
2023-05-11T21:01:39.527Z,9.60
2023-05-11T21:06:46.423Z,9.40
2023-05-11T21:11:55.549Z,9.30
2023-05-11T21:17:00.211Z,9.30
2023-05-11T21:22:07.453Z,9.30
2023-05-11T21:27:16.312Z,9.30
2023-05-11T21:32:19.777Z,9.40
2023-05-11T21:37:26.966Z,9.40
2023-05-11T21:42:34.626Z,9.50
2023-05-11T21:47:38.089Z,9.50
2023-05-11T21:52:44.052Z,9.50
2023-05-11T21:57:47.684Z,9.50
2023-05-11T22:02:51.989Z,9.50
2023-05-11T22:08:06.624Z,9.40
2023-05-11T22:13:24.507Z,9.30
2023-05-11T22:18:28.556Z,9.20
2023-05-11T22:23:33.773Z,9.20
2023-05-11T22:28:37.165Z,9.10
2023-05-11T22:33:43.068Z,9.10
2023-05-11T22:38:55.112Z,9.10
2023-05-11T22:44:08.049Z,9.10
2023-05-11T22:49:16.330Z,9.10
2023-05-11T22:54:28.131Z,9.10
2023-05-11T22:59:34.711Z,9.10
2023-05-11T23:04:50.259Z,9.10
2023-05-11T23:09:56.167Z,9.10
2023-05-11T23:14:59.585Z,9.00
2023-05-11T23:20:03.301Z,8.90
2023-05-11T23:25:09.202Z,8.90
2023-05-11T23:30:20.458Z,8.90
2023-05-11T23:35:29.221Z,8.90
2023-05-11T23:40:38.753Z,8.90
2023-05-11T23:45:49.339Z,9.00
2023-05-11T23:50:53.021Z,9.00
2023-05-11T23:55:57.799Z,9.00
